Quick Links (Output Below):   Max & Min Temps   /   Climate Reports   /   Zone Forecasts
River Forecasts   /   Forestry Forecasts   /   Aviation Forecasts   /   Radars   /   Features

Terminal Aerodrome Forecast (Fayetteville)

Pick a Site:
Arkadelphia | El Dorado | Fayetteville | Fort Smith | Harrison | Highfill | Hot Springs | Jonesboro
Little Rock | Monticello | Mountain Home | Pine Bluff | Texarkana
 Forecast 

KFYV 060539Z 0606/0706 20003KT P6SM SKC
     FM061500 21010KT P6SM SKC
     FM070000 22004KT P6SM SKC=


 Latest METARs (Observations) 
How to Decode METARs
07Z KFYV 060653Z AUTO 18005KT 10SM CLR M07/M08 A3052 RMK AO2 SLP348
         T10721078
         
06Z KFYV 060553Z AUTO 00000KT 10SM CLR M07/M08 A3052 RMK AO2 SLP351
         T10671083 10011 21067 400281111 58001
         
05Z KFYV 060453Z AUTO 00000KT 10SM CLR M06/M08 A3054 RMK AO2 SLP355
         T10611083
         
04Z KFYV 060353Z AUTO 00000KT 10SM CLR M05/M07 A3054 RMK AO2 SLP357
         T10501067
         
03Z KFYV 060253Z 00000KT 10SM CLR M04/M07 A3053 RMK AO2 SLP352
         T10391067 51010
         
02Z KFYV 060153Z 00000KT 10SM CLR M04/M06 A3052 RMK AO2 SLP351
         T10391061
         
01Z KFYV 060053Z 00000KT 10SM CLR M03/M07 A3051 RMK AO2 SLP348
         T10281067
         
00Z KFYV 052353Z 35003KT 10SM CLR 01/M10 A3050 RMK AO2 SLP342
         T00111100 10028 21006 53003
         
***** Today's Observations (Above) *****


23Z KFYV 052253Z 36004KT 10SM CLR 02/M11 A3049 RMK AO2 SLP338
         T00221106
         
22Z KFYV 052153Z 33008KT 10SM CLR 02/M10 A3049 RMK AO2 SLP338
         T00221100
         
***** Yesterday's Observations (Above) *****


Back to Main Page
http://www.srh.noaa.gov/lzk/qfcst.php

USA.gov is the U.S. government's official web portal to all federal, state and local government web resources and services.